createdAt,value
2023-01-18T00:00:08.265Z,979.34
2023-01-18T00:01:08.199Z,979.33
2023-01-18T00:02:08.202Z,979.33
2023-01-18T00:03:08.163Z,979.32
2023-01-18T00:04:08.157Z,979.31
2023-01-18T00:05:08.159Z,979.29
2023-01-18T00:06:08.159Z,979.29
2023-01-18T00:07:08.112Z,979.29
2023-01-18T00:08:08.103Z,979.28
2023-01-18T00:09:08.109Z,979.28
2023-01-18T00:10:08.127Z,979.29
2023-01-18T00:11:08.069Z,979.29
2023-01-18T00:12:08.073Z,979.29
2023-01-18T00:13:08.083Z,979.31
2023-01-18T00:14:08.085Z,979.30
2023-01-18T00:15:08.066Z,979.31
2023-01-18T00:16:08.063Z,979.28
2023-01-18T00:17:08.042Z,979.28
2023-01-18T00:18:08.015Z,979.28
2023-01-18T00:19:08.026Z,979.27
2023-01-18T00:20:07.998Z,979.26
2023-01-18T00:21:07.969Z,979.25
2023-01-18T00:22:07.959Z,979.24
2023-01-18T00:23:08.004Z,979.23
2023-01-18T00:24:07.951Z,979.22
2023-01-18T00:25:07.957Z,979.21
2023-01-18T00:26:07.920Z,979.19
2023-01-18T00:27:07.908Z,979.20
2023-01-18T00:28:07.933Z,979.19
2023-01-18T00:29:07.886Z,979.20
2023-01-18T00:30:07.901Z,979.20
2023-01-18T00:31:07.868Z,979.21
2023-01-18T00:32:07.898Z,979.22
2023-01-18T00:33:07.902Z,979.22
2023-01-18T00:34:07.856Z,979.23
2023-01-18T00:35:07.839Z,979.24
2023-01-18T00:36:07.826Z,979.24
2023-01-18T00:37:07.811Z,979.24
2023-01-18T00:38:07.841Z,979.24
2023-01-18T00:39:07.799Z,979.24
2023-01-18T00:40:07.800Z,979.24
2023-01-18T00:41:07.799Z,979.24
2023-01-18T00:42:07.791Z,979.23
2023-01-18T00:43:07.782Z,979.25
2023-01-18T00:44:07.790Z,979.24
2023-01-18T00:45:07.876Z,979.24
2023-01-18T00:46:07.839Z,979.23
2023-01-18T00:47:07.718Z,979.23
2023-01-18T00:48:07.719Z,979.21
2023-01-18T00:49:07.688Z,979.21
2023-01-18T00:50:07.702Z,979.21
2023-01-18T00:51:07.716Z,979.21
2023-01-18T00:52:07.684Z,979.21
2023-01-18T00:53:07.698Z,979.21
2023-01-18T00:54:07.648Z,979.21
2023-01-18T00:55:07.686Z,979.22
2023-01-18T00:56:07.637Z,979.22
2023-01-18T00:57:07.626Z,979.22
2023-01-18T00:58:07.614Z,979.21
2023-01-18T00:59:07.606Z,979.22
2023-01-18T01:00:07.613Z,979.22
2023-01-18T01:01:07.738Z,979.22
2023-01-18T01:02:07.763Z,979.23
2023-01-18T01:03:07.548Z,979.25
2023-01-18T01:04:07.562Z,979.25
2023-01-18T01:05:07.575Z,979.26
2023-01-18T01:06:07.539Z,979.27
2023-01-18T01:07:07.532Z,979.29
2023-01-18T01:08:07.518Z,979.29
2023-01-18T01:09:07.495Z,979.29
2023-01-18T01:10:07.510Z,979.29
2023-01-18T01:11:07.476Z,979.28
2023-01-18T01:12:07.519Z,979.28
2023-01-18T01:13:07.463Z,979.29
2023-01-18T01:14:07.452Z,979.28
2023-01-18T01:15:07.463Z,979.28
2023-01-18T01:16:07.457Z,979.30
2023-01-18T01:17:07.415Z,979.32
2023-01-18T01:18:07.464Z,979.33
2023-01-18T01:19:07.409Z,979.36
2023-01-18T01:20:07.391Z,979.38
2023-01-18T01:21:07.378Z,979.40
2023-01-18T01:22:07.368Z,979.38
2023-01-18T01:23:07.374Z,979.39
2023-01-18T01:24:07.375Z,979.39
2023-01-18T01:25:07.374Z,979.40
2023-01-18T01:26:07.380Z,979.40
2023-01-18T01:27:07.328Z,979.41
2023-01-18T01:28:07.322Z,979.41
2023-01-18T01:29:07.333Z,979.42
2023-01-18T01:30:07.295Z,979.43
2023-01-18T01:31:07.431Z,979.46
2023-01-18T01:32:07.343Z,979.48
2023-01-18T01:33:07.264Z,979.50
2023-01-18T01:34:07.298Z,979.53
2023-01-18T01:35:07.235Z,979.56
2023-01-18T01:36:07.298Z,979.59
2023-01-18T01:37:07.254Z,979.61
2023-01-18T01:38:07.235Z,979.63
2023-01-18T01:39:07.229Z,979.65
2023-01-18T01:40:07.202Z,979.67
2023-01-18T01:41:07.199Z,979.66
2023-01-18T01:42:07.190Z,979.67
2023-01-18T01:43:07.173Z,979.68
2023-01-18T01:44:07.175Z,979.69
2023-01-18T01:45:07.188Z,979.71
2023-01-18T01:46:07.257Z,979.73
2023-01-18T01:47:07.148Z,979.75
2023-01-18T01:48:07.117Z,979.76
2023-01-18T01:49:07.101Z,979.77
2023-01-18T01:50:07.107Z,979.80
2023-01-18T01:51:07.086Z,979.81
2023-01-18T01:52:07.110Z,979.83
2023-01-18T01:53:07.070Z,979.85
2023-01-18T01:54:07.072Z,979.85
2023-01-18T01:55:07.062Z,979.84
2023-01-18T01:56:07.035Z,979.83
2023-01-18T01:57:07.043Z,979.84
2023-01-18T01:58:07.072Z,979.84
2023-01-18T01:59:06.997Z,979.84
2023-01-18T02:00:06.998Z,979.85
2023-01-18T02:01:07.169Z,979.86
2023-01-18T02:02:07.166Z,979.88
2023-01-18T02:03:06.983Z,979.89
2023-01-18T02:04:06.955Z,979.88
2023-01-18T02:05:06.946Z,979.89
2023-01-18T02:06:06.939Z,979.92
2023-01-18T02:07:06.941Z,979.92
2023-01-18T02:08:06.935Z,979.91
2023-01-18T02:09:06.904Z,979.92
2023-01-18T02:10:06.902Z,979.92
2023-01-18T02:11:06.910Z,979.94
2023-01-18T02:12:06.886Z,979.94
2023-01-18T02:13:06.886Z,979.95
2023-01-18T02:14:06.859Z,979.96
2023-01-18T02:15:06.846Z,979.95
2023-01-18T02:16:06.855Z,979.98
2023-01-18T02:17:06.819Z,979.98
2023-01-18T02:18:06.832Z,980.00
2023-01-18T02:19:06.815Z,980.04
2023-01-18T02:20:06.816Z,980.06
2023-01-18T02:21:06.786Z,980.06
2023-01-18T02:22:06.845Z,980.08
2023-01-18T02:23:06.795Z,980.10
2023-01-18T02:24:06.760Z,980.10
2023-01-18T02:25:06.745Z,980.11
2023-01-18T02:26:06.774Z,980.12
2023-01-18T02:27:06.730Z,980.13
2023-01-18T02:28:06.741Z,980.13
2023-01-18T02:29:06.725Z,980.13
2023-01-18T02:30:06.701Z,980.15
2023-01-18T02:31:06.755Z,980.16
2023-01-18T02:32:06.704Z,980.17
2023-01-18T02:33:06.674Z,980.20
2023-01-18T02:34:06.654Z,980.20
2023-01-18T02:35:06.654Z,980.21
2023-01-18T02:36:06.656Z,980.20
2023-01-18T02:37:06.643Z,980.21
2023-01-18T02:38:06.640Z,980.23
2023-01-18T02:39:06.604Z,980.24
2023-01-18T02:40:06.620Z,980.25
2023-01-18T02:41:06.587Z,980.25
2023-01-18T02:42:06.628Z,980.28
2023-01-18T02:43:06.606Z,980.30
2023-01-18T02:44:06.579Z,980.32
2023-01-18T02:45:06.566Z,980.33
2023-01-18T02:46:06.614Z,980.36
2023-01-18T02:47:06.542Z,980.35
2023-01-18T02:48:06.542Z,980.36
2023-01-18T02:49:06.556Z,980.36
2023-01-18T02:50:06.505Z,980.38
2023-01-18T02:51:06.502Z,980.39
2023-01-18T02:52:06.492Z,980.41
2023-01-18T02:53:06.510Z,980.42
2023-01-18T02:54:06.729Z,980.43
2023-01-18T02:55:06.442Z,980.44
2023-01-18T02:56:06.450Z,980.47
2023-01-18T02:57:06.426Z,980.47
2023-01-18T02:58:06.491Z,980.49
2023-01-18T02:59:06.404Z,980.49
2023-01-18T03:00:06.432Z,980.51
2023-01-18T03:01:06.457Z,980.52
2023-01-18T03:02:06.419Z,980.51
2023-01-18T03:03:06.364Z,980.52
2023-01-18T03:04:06.365Z,980.54
2023-01-18T03:05:06.375Z,980.58
2023-01-18T03:06:06.344Z,980.58
2023-01-18T03:07:06.348Z,980.59
2023-01-18T03:08:06.339Z,980.62
2023-01-18T03:09:06.301Z,980.63
2023-01-18T03:10:06.339Z,980.64
2023-01-18T03:11:06.285Z,980.63
2023-01-18T03:12:06.326Z,980.61
2023-01-18T03:13:06.265Z,980.60
2023-01-18T03:14:06.278Z,980.59
2023-01-18T03:15:06.294Z,980.59
2023-01-18T03:16:06.277Z,980.60
2023-01-18T03:17:06.259Z,980.61
2023-01-18T03:18:06.233Z,980.61
2023-01-18T03:19:06.205Z,980.62
2023-01-18T03:20:06.214Z,980.63
2023-01-18T03:21:06.219Z,980.63
2023-01-18T03:22:06.217Z,980.63
2023-01-18T03:23:06.172Z,980.64
2023-01-18T03:24:07.405Z,980.66
2023-01-18T03:25:06.193Z,980.66
2023-01-18T03:26:06.211Z,980.66
2023-01-18T03:27:06.282Z,980.67
2023-01-18T03:28:06.166Z,980.66
2023-01-18T03:29:06.137Z,980.68
2023-01-18T03:30:06.273Z,980.70
2023-01-18T03:31:06.199Z,980.70
2023-01-18T03:32:06.110Z,980.72
2023-01-18T03:33:06.191Z,980.75
2023-01-18T03:34:06.251Z,980.73
2023-01-18T03:35:06.075Z,980.78
2023-01-18T03:36:06.121Z,980.78
2023-01-18T03:37:06.088Z,980.83
2023-01-18T03:38:06.114Z,980.82
2023-01-18T03:39:06.266Z,980.85
2023-01-18T03:40:06.096Z,980.86
2023-01-18T03:41:06.042Z,980.87
2023-01-18T03:42:06.081Z,980.89
2023-01-18T03:43:06.128Z,980.88
2023-01-18T03:44:06.243Z,980.90
2023-01-18T03:45:06.095Z,980.91
2023-01-18T03:46:06.249Z,980.92
2023-01-18T03:47:06.106Z,980.93
2023-01-18T03:48:06.279Z,980.95
2023-01-18T03:49:06.026Z,980.96
2023-01-18T03:50:06.180Z,980.97
2023-01-18T03:51:05.991Z,981.00
2023-01-18T03:52:05.980Z,981.01
2023-01-18T03:53:06.030Z,981.03
2023-01-18T03:54:05.877Z,981.04
2023-01-18T03:55:05.856Z,981.05
2023-01-18T03:56:05.832Z,981.04
2023-01-18T03:57:05.849Z,981.05
2023-01-18T03:58:05.810Z,981.07
2023-01-18T03:59:05.859Z,981.10
2023-01-18T04:00:05.793Z,981.10
2023-01-18T04:01:05.879Z,981.10
2023-01-18T04:02:05.825Z,981.11
2023-01-18T04:03:05.834Z,981.12
2023-01-18T04:04:05.755Z,981.14
2023-01-18T04:05:05.776Z,981.14
2023-01-18T04:06:05.785Z,981.17
2023-01-18T04:07:05.740Z,981.21
2023-01-18T04:08:05.732Z,981.21
2023-01-18T04:09:05.855Z,981.21
2023-01-18T04:10:05.721Z,981.24
2023-01-18T04:11:05.706Z,981.23
2023-01-18T04:12:05.710Z,981.26
2023-01-18T04:13:05.675Z,981.25
2023-01-18T04:14:05.672Z,981.27
2023-01-18T04:15:05.667Z,981.29
2023-01-18T04:16:05.720Z,981.33
2023-01-18T04:17:05.632Z,981.33
2023-01-18T04:18:05.615Z,981.31
2023-01-18T04:19:05.645Z,981.35
2023-01-18T04:20:05.661Z,981.34
2023-01-18T04:21:05.597Z,981.34
2023-01-18T04:22:05.588Z,981.35
2023-01-18T04:23:05.588Z,981.39
2023-01-18T04:24:05.562Z,981.40
2023-01-18T04:25:05.568Z,981.39
2023-01-18T04:26:05.533Z,981.42
2023-01-18T04:27:05.528Z,981.41
2023-01-18T04:28:05.542Z,981.42
2023-01-18T04:29:05.531Z,981.46
2023-01-18T04:30:05.509Z,981.44
2023-01-18T04:31:05.556Z,981.46
2023-01-18T04:32:05.520Z,981.49
2023-01-18T04:33:05.482Z,981.46
2023-01-18T04:34:05.482Z,981.48
2023-01-18T04:35:05.445Z,981.49
2023-01-18T04:36:05.441Z,981.50
2023-01-18T04:37:05.454Z,981.53
2023-01-18T04:38:05.420Z,981.56
2023-01-18T04:39:05.433Z,981.57
2023-01-18T04:40:05.402Z,981.58
2023-01-18T04:41:05.393Z,981.60
2023-01-18T04:42:05.429Z,981.60
2023-01-18T04:43:05.385Z,981.60
2023-01-18T04:44:05.380Z,981.60
2023-01-18T04:45:05.378Z,981.60
2023-01-18T04:46:05.370Z,981.60
2023-01-18T04:47:05.371Z,981.61
2023-01-18T04:48:05.312Z,981.61
2023-01-18T04:49:05.314Z,981.61
2023-01-18T04:50:05.305Z,981.60
2023-01-18T04:51:05.322Z,981.61
2023-01-18T04:52:05.291Z,981.61
2023-01-18T04:53:05.276Z,981.62
2023-01-18T04:54:05.276Z,981.65
2023-01-18T04:55:05.274Z,981.66
2023-01-18T04:56:05.263Z,981.70
2023-01-18T04:57:05.259Z,981.70
2023-01-18T04:58:05.218Z,981.69
2023-01-18T04:59:05.229Z,981.72
2023-01-18T05:00:06.723Z,981.71
2023-01-18T05:01:05.344Z,981.74
2023-01-18T05:02:05.183Z,981.77
2023-01-18T05:03:05.194Z,981.78
2023-01-18T05:04:05.191Z,981.79
2023-01-18T05:05:05.158Z,981.80
2023-01-18T05:06:05.136Z,981.81
2023-01-18T05:07:05.127Z,981.84
2023-01-18T05:08:05.115Z,981.84
2023-01-18T05:09:05.140Z,981.84
2023-01-18T05:10:05.122Z,981.88
2023-01-18T05:11:05.113Z,981.87
2023-01-18T05:12:05.093Z,981.90
2023-01-18T05:13:05.071Z,981.92
2023-01-18T05:14:05.082Z,981.94
2023-01-18T05:15:05.086Z,981.96
2023-01-18T05:16:06.214Z,981.96
2023-01-18T05:17:05.044Z,981.97
2023-01-18T05:18:05.046Z,981.99
2023-01-18T05:19:05.008Z,982.01
2023-01-18T05:20:05.025Z,982.06
2023-01-18T05:21:04.998Z,982.08
2023-01-18T05:22:04.975Z,982.08
2023-01-18T05:23:04.975Z,982.09
2023-01-18T05:24:04.999Z,982.10
2023-01-18T05:25:04.956Z,982.11
2023-01-18T05:26:04.976Z,982.09
2023-01-18T05:27:04.955Z,982.09
2023-01-18T05:28:04.945Z,982.09
2023-01-18T05:29:04.930Z,982.11
2023-01-18T05:30:06.799Z,982.14
2023-01-18T05:31:04.907Z,982.16
2023-01-18T05:32:04.901Z,982.18
2023-01-18T05:33:04.949Z,982.20
2023-01-18T05:34:04.920Z,982.18
2023-01-18T05:35:04.870Z,982.21
2023-01-18T05:36:04.847Z,982.24
2023-01-18T05:37:04.839Z,982.26
2023-01-18T05:38:04.853Z,982.29
2023-01-18T05:39:04.830Z,982.30
2023-01-18T05:40:04.803Z,982.36
2023-01-18T05:41:04.840Z,982.35
2023-01-18T05:42:04.796Z,982.37
2023-01-18T05:43:04.784Z,982.41
2023-01-18T05:44:04.775Z,982.43
2023-01-18T05:45:04.825Z,982.44
2023-01-18T05:46:04.863Z,982.47
2023-01-18T05:47:04.756Z,982.49
2023-01-18T05:48:04.734Z,982.51
2023-01-18T05:49:04.684Z,982.50
2023-01-18T05:50:04.755Z,982.50
2023-01-18T05:51:04.710Z,982.51
2023-01-18T05:52:04.678Z,982.52
2023-01-18T05:53:04.652Z,982.55
2023-01-18T05:54:04.671Z,982.54
2023-01-18T05:55:04.692Z,982.57
2023-01-18T05:56:04.652Z,982.59
2023-01-18T05:57:04.668Z,982.60
2023-01-18T05:58:04.623Z,982.61
2023-01-18T05:59:04.661Z,982.64
2023-01-18T06:00:04.626Z,982.65
2023-01-18T06:01:04.673Z,982.62
2023-01-18T06:02:04.650Z,982.64
2023-01-18T06:03:04.553Z,982.65
2023-01-18T06:04:04.609Z,982.67
2023-01-18T06:05:04.506Z,982.68
2023-01-18T06:06:04.552Z,982.71
2023-01-18T06:07:04.551Z,982.69
2023-01-18T06:08:04.485Z,982.69
2023-01-18T06:09:04.540Z,982.71
2023-01-18T06:10:04.466Z,982.71
2023-01-18T06:11:04.535Z,982.72
2023-01-18T06:12:04.557Z,982.78
2023-01-18T06:13:04.490Z,982.81
2023-01-18T06:14:04.502Z,982.82
2023-01-18T06:15:04.471Z,982.86
2023-01-18T06:16:04.575Z,982.90
2023-01-18T06:17:04.453Z,982.91
2023-01-18T06:18:04.431Z,982.94
2023-01-18T06:19:04.445Z,982.96
2023-01-18T06:20:04.396Z,982.97
2023-01-18T06:21:04.483Z,982.98
2023-01-18T06:22:04.402Z,982.96
2023-01-18T06:23:04.398Z,982.96
2023-01-18T06:24:04.379Z,982.98
2023-01-18T06:25:04.383Z,982.99
2023-01-18T06:26:04.334Z,983.00
2023-01-18T06:27:04.401Z,983.04
2023-01-18T06:28:04.345Z,983.05
2023-01-18T06:29:04.355Z,983.07
2023-01-18T06:30:04.353Z,983.10
2023-01-18T06:31:04.343Z,983.10
2023-01-18T06:32:04.359Z,983.10
2023-01-18T06:33:04.344Z,983.13
2023-01-18T06:34:04.291Z,983.11
2023-01-18T06:35:04.777Z,983.15
2023-01-18T06:36:04.269Z,983.17
2023-01-18T06:37:04.305Z,983.17
2023-01-18T06:38:04.304Z,983.21
2023-01-18T06:39:04.267Z,983.23
2023-01-18T06:40:04.298Z,983.23
2023-01-18T06:41:04.247Z,983.27
2023-01-18T06:42:04.226Z,983.27
2023-01-18T06:43:04.299Z,983.27
2023-01-18T06:44:04.196Z,983.28
2023-01-18T06:45:04.173Z,983.27
2023-01-18T06:46:04.175Z,983.31
2023-01-18T06:47:04.146Z,983.31
2023-01-18T06:48:04.109Z,983.35
2023-01-18T06:49:04.122Z,983.36
2023-01-18T06:50:04.083Z,983.40
2023-01-18T06:51:04.123Z,983.41
2023-01-18T06:52:04.125Z,983.44
2023-01-18T06:53:04.080Z,983.45
2023-01-18T06:54:04.083Z,983.46
2023-01-18T06:55:04.047Z,983.47
2023-01-18T06:56:04.032Z,983.50
2023-01-18T06:57:04.030Z,983.51
2023-01-18T06:58:04.051Z,983.51
2023-01-18T06:59:04.025Z,983.53
2023-01-18T07:00:03.974Z,983.55
2023-01-18T07:01:04.107Z,983.57
2023-01-18T07:02:04.004Z,983.59
2023-01-18T07:03:03.950Z,983.63
2023-01-18T07:04:03.975Z,983.64
2023-01-18T07:05:03.991Z,983.69
2023-01-18T07:06:03.922Z,983.72
2023-01-18T07:07:03.945Z,983.75
2023-01-18T07:08:03.919Z,983.77
2023-01-18T07:09:03.889Z,983.79
2023-01-18T07:10:03.901Z,983.79
2023-01-18T07:11:03.885Z,983.82
2023-01-18T07:12:03.867Z,983.82
2023-01-18T07:13:03.866Z,983.84
2023-01-18T07:14:03.846Z,983.87
2023-01-18T07:15:16.455Z,983.88
2023-01-18T07:16:03.848Z,983.89
2023-01-18T07:17:03.808Z,983.92
2023-01-18T07:18:03.828Z,983.94
2023-01-18T07:19:03.807Z,983.96
2023-01-18T07:20:03.789Z,983.99
2023-01-18T07:21:03.815Z,984.00
2023-01-18T07:22:03.794Z,984.02
2023-01-18T07:23:03.795Z,984.04
2023-01-18T07:24:03.862Z,984.07
2023-01-18T07:25:03.769Z,984.10
2023-01-18T07:26:03.743Z,984.15
2023-01-18T07:27:03.737Z,984.17
2023-01-18T07:28:03.706Z,984.19
2023-01-18T07:29:03.727Z,984.22
2023-01-18T07:30:03.676Z,984.24
2023-01-18T07:31:03.683Z,984.26
2023-01-18T07:32:03.702Z,984.28
2023-01-18T07:33:03.663Z,984.28
2023-01-18T07:34:03.665Z,984.30
2023-01-18T07:35:03.650Z,984.31
2023-01-18T07:36:03.612Z,984.34
2023-01-18T07:37:03.630Z,984.34
2023-01-18T07:38:03.622Z,984.35
2023-01-18T07:39:03.608Z,984.38
2023-01-18T07:40:03.674Z,984.39
2023-01-18T07:41:03.567Z,984.40
2023-01-18T07:42:03.558Z,984.42
2023-01-18T07:43:03.590Z,984.42
2023-01-18T07:44:03.548Z,984.47
2023-01-18T07:45:03.686Z,984.50
2023-01-18T07:46:03.545Z,984.52
2023-01-18T07:47:03.584Z,984.54
2023-01-18T07:48:03.498Z,984.57
2023-01-18T07:49:03.502Z,984.59
2023-01-18T07:50:03.528Z,984.64
2023-01-18T07:51:04.259Z,984.65
2023-01-18T07:52:03.638Z,984.66
2023-01-18T07:53:03.458Z,984.68
2023-01-18T07:54:03.461Z,984.67
2023-01-18T07:55:05.909Z,984.71
2023-01-18T07:56:03.443Z,984.73
2023-01-18T07:57:03.428Z,984.73
2023-01-18T07:58:03.441Z,984.77
2023-01-18T07:59:03.427Z,984.78
2023-01-18T08:00:03.408Z,984.79
2023-01-18T08:01:03.495Z,984.82
2023-01-18T08:02:03.430Z,984.82
2023-01-18T08:03:03.782Z,984.86
2023-01-18T08:04:04.295Z,984.88
2023-01-18T08:05:03.328Z,984.90
2023-01-18T08:06:03.397Z,984.93
2023-01-18T08:07:03.361Z,984.94
2023-01-18T08:08:03.339Z,984.91
2023-01-18T08:09:03.299Z,984.95
2023-01-18T08:10:03.298Z,984.95
2023-01-18T08:11:03.358Z,984.96
2023-01-18T08:12:03.292Z,985.00
2023-01-18T08:13:03.289Z,985.00
2023-01-18T08:14:03.252Z,985.01
2023-01-18T08:15:03.239Z,985.02
2023-01-18T08:16:03.269Z,985.04
2023-01-18T08:17:03.216Z,985.04
2023-01-18T08:18:03.215Z,985.07
2023-01-18T08:19:03.210Z,985.06
2023-01-18T08:20:03.201Z,985.10
2023-01-18T08:21:03.190Z,985.09
2023-01-18T08:22:03.189Z,985.10
2023-01-18T08:23:03.169Z,985.11
2023-01-18T08:24:03.148Z,985.12
2023-01-18T08:25:03.141Z,985.15
2023-01-18T08:26:03.231Z,985.17
2023-01-18T08:27:03.183Z,985.17
2023-01-18T08:28:03.133Z,985.20
2023-01-18T08:29:03.124Z,985.22
2023-01-18T08:30:03.854Z,985.23
2023-01-18T08:31:03.100Z,985.25
2023-01-18T08:32:03.161Z,985.26
2023-01-18T08:33:03.106Z,985.26
2023-01-18T08:34:03.059Z,985.26
2023-01-18T08:35:03.141Z,985.27
2023-01-18T08:36:03.023Z,985.26
2023-01-18T08:37:03.026Z,985.27
2023-01-18T08:38:03.036Z,985.27
2023-01-18T08:39:02.992Z,985.27
2023-01-18T08:40:03.002Z,985.29
2023-01-18T08:41:03.002Z,985.32
2023-01-18T08:42:02.965Z,985.35
2023-01-18T08:43:02.977Z,985.38
2023-01-18T08:44:02.997Z,985.39
2023-01-18T08:45:02.953Z,985.42
2023-01-18T08:46:02.966Z,985.45
2023-01-18T08:47:02.905Z,985.47
2023-01-18T08:48:02.909Z,985.49
2023-01-18T08:49:02.951Z,985.51
2023-01-18T08:50:02.903Z,985.52
2023-01-18T08:51:02.872Z,985.52
2023-01-18T08:52:03.034Z,985.55
2023-01-18T08:53:02.920Z,985.57
2023-01-18T08:54:02.856Z,985.58
2023-01-18T08:55:02.822Z,985.60
2023-01-18T08:56:02.854Z,985.62
2023-01-18T08:57:02.863Z,985.66
2023-01-18T08:58:02.828Z,985.69
2023-01-18T08:59:02.905Z,985.72
2023-01-18T09:00:02.892Z,985.75
2023-01-18T09:01:02.897Z,985.77
2023-01-18T09:02:02.884Z,985.78
2023-01-18T09:03:03.590Z,985.80
2023-01-18T09:04:02.794Z,985.80
2023-01-18T09:05:02.775Z,985.79
2023-01-18T09:06:02.726Z,985.80
2023-01-18T09:07:02.714Z,985.83
2023-01-18T09:08:02.718Z,985.85
2023-01-18T09:09:02.705Z,985.89
2023-01-18T09:10:02.716Z,985.91
2023-01-18T09:11:02.667Z,985.90
2023-01-18T09:12:02.668Z,985.97
2023-01-18T09:13:02.785Z,986.00
2023-01-18T09:14:02.685Z,986.01
2023-01-18T09:15:02.634Z,986.03
2023-01-18T09:16:02.712Z,986.04
2023-01-18T09:17:02.641Z,986.03
2023-01-18T09:18:02.641Z,986.05
2023-01-18T09:19:02.620Z,986.04
2023-01-18T09:20:02.598Z,986.05
2023-01-18T09:21:02.565Z,986.05
2023-01-18T09:22:02.563Z,986.07
2023-01-18T09:23:02.590Z,986.09
2023-01-18T09:24:02.582Z,986.13
2023-01-18T09:25:02.529Z,986.17
2023-01-18T09:26:02.538Z,986.19
2023-01-18T09:27:02.718Z,986.20
2023-01-18T09:28:02.550Z,986.24
2023-01-18T09:29:02.581Z,986.24
2023-01-18T09:30:02.520Z,986.29
2023-01-18T09:31:02.503Z,986.31
2023-01-18T09:32:02.460Z,986.34
2023-01-18T09:33:02.657Z,986.36
2023-01-18T09:34:18.588Z,986.35
2023-01-18T09:35:02.463Z,986.37
2023-01-18T09:36:02.441Z,986.37
2023-01-18T09:37:02.423Z,986.38
2023-01-18T09:38:02.419Z,986.40
2023-01-18T09:39:02.389Z,986.41
2023-01-18T09:40:02.388Z,986.42
2023-01-18T09:41:02.439Z,986.46
2023-01-18T09:42:02.363Z,986.44
2023-01-18T09:43:02.372Z,986.41
2023-01-18T09:44:02.360Z,986.45
2023-01-18T09:45:02.340Z,986.48
2023-01-18T09:46:02.343Z,986.48
2023-01-18T09:47:02.311Z,986.51
2023-01-18T09:48:02.339Z,986.53
2023-01-18T09:49:02.330Z,986.57
2023-01-18T09:50:02.348Z,986.60
2023-01-18T09:51:02.278Z,986.63
2023-01-18T09:52:02.259Z,986.62
2023-01-18T09:53:02.328Z,986.67
2023-01-18T09:54:02.282Z,986.69
2023-01-18T09:55:02.265Z,986.68
2023-01-18T09:56:02.223Z,986.73
2023-01-18T09:57:02.213Z,986.73
2023-01-18T09:58:02.197Z,986.73
2023-01-18T09:59:02.219Z,986.74
2023-01-18T10:00:02.188Z,986.77
2023-01-18T10:01:02.338Z,986.78
2023-01-18T10:02:02.325Z,986.77
2023-01-18T10:03:02.483Z,986.76
2023-01-18T10:04:02.169Z,986.75
2023-01-18T10:05:02.187Z,986.75
2023-01-18T10:06:02.150Z,986.79
2023-01-18T10:07:02.123Z,986.81
2023-01-18T10:08:02.112Z,986.81
2023-01-18T10:09:02.153Z,986.84
2023-01-18T10:10:02.159Z,986.82
2023-01-18T10:11:02.087Z,986.86
2023-01-18T10:12:02.113Z,986.80
2023-01-18T10:13:02.126Z,986.81
2023-01-18T10:14:02.070Z,986.83
2023-01-18T10:15:02.039Z,986.82
2023-01-18T10:16:02.035Z,986.84
2023-01-18T10:17:02.046Z,986.82
2023-01-18T10:18:02.043Z,986.85
2023-01-18T10:19:02.002Z,986.85
2023-01-18T10:20:02.053Z,986.88
2023-01-18T10:21:02.010Z,986.89
2023-01-18T10:22:01.976Z,986.91
2023-01-18T10:23:01.943Z,986.92
2023-01-18T10:24:01.963Z,986.93
2023-01-18T10:25:01.967Z,986.97
2023-01-18T10:26:01.946Z,986.93
2023-01-18T10:27:01.931Z,986.95
2023-01-18T10:28:01.935Z,987.01
2023-01-18T10:29:01.889Z,987.02
2023-01-18T10:30:01.960Z,986.98
2023-01-18T10:31:01.906Z,987.03
2023-01-18T10:32:01.917Z,987.01
2023-01-18T10:33:02.334Z,987.03
2023-01-18T10:34:01.860Z,987.05
2023-01-18T10:35:01.875Z,987.06
2023-01-18T10:36:01.838Z,987.06
2023-01-18T10:37:01.916Z,987.04
2023-01-18T10:38:02.129Z,987.06
2023-01-18T10:39:01.803Z,987.03
2023-01-18T10:40:01.826Z,987.04
2023-01-18T10:41:01.779Z,987.06
2023-01-18T10:42:01.781Z,987.10
2023-01-18T10:43:02.179Z,987.08
2023-01-18T10:44:01.788Z,987.09
2023-01-18T10:45:01.765Z,987.11
2023-01-18T10:46:01.795Z,987.11
2023-01-18T10:47:01.726Z,987.15
2023-01-18T10:48:01.720Z,987.20
2023-01-18T10:49:01.710Z,987.20
2023-01-18T10:50:01.701Z,987.23
2023-01-18T10:51:01.851Z,987.24
2023-01-18T10:52:01.667Z,987.24
2023-01-18T10:53:02.143Z,987.24
2023-01-18T10:54:01.652Z,987.26
2023-01-18T10:55:01.684Z,987.26
2023-01-18T10:56:01.651Z,987.25
2023-01-18T10:57:01.627Z,987.30
2023-01-18T10:58:01.820Z,987.27
2023-01-18T10:59:01.600Z,987.31
2023-01-18T11:00:01.638Z,987.34
2023-01-18T11:01:01.687Z,987.32
2023-01-18T11:02:01.762Z,987.31
2023-01-18T11:03:02.107Z,987.32
2023-01-18T11:04:01.551Z,987.32
2023-01-18T11:05:01.567Z,987.34
2023-01-18T11:06:01.557Z,987.36
2023-01-18T11:07:01.546Z,987.37
2023-01-18T11:08:02.711Z,987.37
2023-01-18T11:09:01.625Z,987.37
2023-01-18T11:10:01.547Z,987.44
2023-01-18T11:11:01.510Z,987.43
2023-01-18T11:12:01.838Z,987.43
2023-01-18T11:13:01.771Z,987.42
2023-01-18T11:14:01.710Z,987.42
2023-01-18T11:15:01.527Z,987.44
2023-01-18T11:16:01.808Z,987.45
2023-01-18T11:17:01.780Z,987.46
2023-01-18T11:18:01.639Z,987.45
2023-01-18T11:19:01.515Z,987.46
2023-01-18T11:20:01.563Z,987.45
2023-01-18T11:21:01.463Z,987.45
2023-01-18T11:22:01.382Z,987.46
2023-01-18T11:23:01.917Z,987.45
2023-01-18T11:24:01.448Z,987.46
2023-01-18T11:25:01.625Z,987.45
2023-01-18T11:26:01.501Z,987.46
2023-01-18T11:27:01.373Z,987.49
2023-01-18T11:28:01.719Z,987.48
2023-01-18T11:29:01.356Z,987.49
2023-01-18T11:30:01.312Z,987.48
2023-01-18T11:31:01.288Z,987.49
2023-01-18T11:32:01.401Z,987.52
2023-01-18T11:33:01.535Z,987.49
2023-01-18T11:34:01.302Z,987.53
2023-01-18T11:35:01.247Z,987.48
2023-01-18T11:36:01.290Z,987.53
2023-01-18T11:37:01.257Z,987.52
2023-01-18T11:38:01.928Z,987.53
2023-01-18T11:39:01.311Z,987.52
2023-01-18T11:40:01.203Z,987.55
2023-01-18T11:41:01.205Z,987.56
2023-01-18T11:42:01.211Z,987.55
2023-01-18T11:43:01.167Z,987.55
2023-01-18T11:44:01.186Z,987.57
2023-01-18T11:45:01.207Z,987.55
2023-01-18T11:46:01.477Z,987.58
2023-01-18T11:47:01.190Z,987.55
2023-01-18T11:48:01.586Z,987.54
2023-01-18T11:49:01.127Z,987.52
2023-01-18T11:50:10.333Z,987.53
2023-01-18T11:51:01.117Z,987.56
2023-01-18T11:52:01.079Z,987.53
2023-01-18T11:53:01.131Z,987.55
2023-01-18T11:54:01.119Z,987.49
2023-01-18T11:55:01.115Z,987.52
2023-01-18T11:56:01.045Z,987.52
2023-01-18T11:57:01.082Z,987.54
2023-01-18T11:58:01.561Z,987.54
2023-01-18T11:59:01.069Z,987.54
2023-01-18T12:00:01.021Z,987.54
2023-01-18T12:01:01.058Z,987.52
2023-01-18T12:02:01.076Z,987.52
2023-01-18T12:03:01.387Z,987.55
2023-01-18T12:04:00.977Z,987.56
2023-01-18T12:05:01.013Z,987.60
2023-01-18T12:06:00.976Z,987.58
2023-01-18T12:07:01.127Z,987.60
2023-01-18T12:08:02.281Z,987.64
2023-01-18T12:09:00.918Z,987.63
2023-01-18T12:10:00.940Z,987.62
2023-01-18T12:11:00.893Z,987.66
2023-01-18T12:12:13.533Z,987.67
2023-01-18T12:13:00.928Z,987.70
2023-01-18T12:14:00.864Z,987.68
2023-01-18T12:15:00.856Z,987.67
2023-01-18T12:16:00.881Z,987.66
2023-01-18T12:17:00.936Z,987.67
2023-01-18T12:18:12.334Z,987.69
2023-01-18T12:19:00.853Z,987.68
2023-01-18T12:20:00.855Z,987.69
2023-01-18T12:21:00.822Z,987.70
2023-01-18T12:22:00.933Z,987.71
2023-01-18T12:23:00.820Z,987.72
2023-01-18T12:24:00.774Z,987.72
2023-01-18T12:25:00.767Z,987.72
2023-01-18T12:26:11.875Z,987.75
2023-01-18T12:27:00.791Z,987.78
2023-01-18T12:28:01.419Z,987.83